createdAt,value
2022-09-05T07:15:09.391Z,22.1891
2022-09-05T07:16:09.637Z,22.26
2022-09-05T07:17:08.975Z,22.334
2022-09-05T07:18:10.867Z,22.393
2022-09-05T07:19:08.216Z,22.475
2022-09-05T07:20:11.510Z,22.525
2022-09-05T07:21:26.776Z,22.605
2022-09-05T07:22:29.481Z,22.666
2022-09-05T07:24:06.979Z,22.73
2022-09-05T07:24:58.414Z,22.785
2022-09-05T07:25:09.046Z,22.862
2022-09-05T07:26:09.672Z,22.93
2022-09-05T07:27:09.407Z,23.02
2022-09-05T07:28:28.637Z,23.085
2022-09-05T07:29:09.863Z,23.187
2022-09-05T07:30:09.051Z,23.29
2022-09-05T07:31:09.538Z,23.356
2022-09-05T07:32:09.151Z,23.425
2022-09-05T07:33:11.817Z,23.475
2022-09-05T07:34:20.598Z,23.54
2022-09-05T07:35:09.310Z,23.612
2022-09-05T07:36:09.441Z,23.682
2022-09-05T07:37:15.148Z,23.745
2022-09-05T07:38:09.053Z,23.8
2022-09-05T07:39:27.497Z,23.845
2022-09-05T07:40:23.288Z,23.92
2022-09-05T07:41:12.215Z,23.97
2022-09-05T07:42:09.596Z,24.02
2022-09-05T07:43:10.477Z,24.111
2022-09-05T07:44:08.146Z,24.183
2022-09-05T07:45:09.866Z,24.245
2022-09-05T07:46:09.239Z,24.339
2022-09-05T07:47:09.324Z,24.405
2022-09-05T07:48:09.616Z,24.465
2022-09-05T07:49:09.141Z,24.515
2022-09-05T07:54:33.230Z,24.6
2022-09-05T07:57:55.362Z,24.665
2022-09-05T07:57:59.495Z,24.735
2022-09-05T07:58:08.717Z,24.813
2022-09-05T07:58:17.597Z,24.92
2022-09-05T07:58:26.484Z,24.97
2022-09-05T07:59:08.476Z,25.11
2022-09-05T08:00:25.413Z,25.149
2022-09-05T08:01:09.382Z,25.193
2022-09-05T08:02:11.959Z,25.265
2022-09-05T08:03:08.347Z,25.3
2022-09-05T08:04:08.207Z,25.345
2022-09-05T08:05:09.720Z,25.41
2022-09-05T08:06:09.035Z,25.455
2022-09-05T08:07:45.965Z,25.48
2022-09-05T08:08:09.287Z,25.525
2022-09-05T08:10:00.939Z,25.565
2022-09-05T08:10:20.828Z,25.585
2022-09-05T08:11:28.149Z,25.642
2022-09-05T08:12:09.632Z,25.66
2022-09-05T08:13:24.529Z,25.71
2022-09-05T08:14:43.640Z,25.77
2022-09-05T08:15:20.885Z,25.8158
2022-09-05T08:16:13.255Z,25.8741
2022-09-05T08:17:09.469Z,25.94
2022-09-05T08:18:11.887Z,25.94
2022-09-05T08:19:08.485Z,25.995
2022-09-05T08:20:09.497Z,26.055
2022-09-05T08:21:09.741Z,26.06
2022-09-05T08:22:09.410Z,26.03
2022-09-05T08:23:08.713Z,26.0218
2022-09-05T08:24:13.203Z,26.0092
2022-09-05T08:25:11.500Z,26.045
2022-09-05T08:26:09.578Z,26.08
2022-09-05T08:27:16.349Z,26.121
2022-09-05T08:28:08.547Z,26.1841
2022-09-05T08:29:10.508Z,26.2361
2022-09-05T08:30:24.444Z,26.296
2022-09-05T08:31:09.370Z,26.377
2022-09-05T08:32:09.162Z,26.44
2022-09-05T08:33:10.707Z,26.5
2022-09-05T08:34:08.907Z,26.57
2022-09-05T08:35:08.828Z,26.616
2022-09-05T08:36:09.411Z,26.775
2022-09-05T08:37:08.863Z,26.845
2022-09-05T08:38:12.015Z,26.8158
2022-09-05T08:39:08.253Z,26.845
2022-09-05T08:40:10.533Z,26.9
2022-09-05T08:41:09.369Z,26.98
2022-09-05T08:42:11.373Z,26.98
2022-09-05T08:46:20.013Z,26.95
2022-09-05T08:46:53.074Z,26.94
2022-09-05T08:47:01.995Z,26.96
2022-09-05T08:47:16.233Z,26.975
2022-09-05T08:47:25.662Z,27.025
2022-09-05T08:48:09.360Z,27.07
2022-09-05T08:49:12.968Z,27.132
2022-09-05T08:50:09.749Z,27.25
2022-09-05T08:51:11.919Z,27.25
2022-09-05T08:52:09.387Z,27.26
2022-09-05T08:53:26.344Z,27.3
2022-09-05T08:54:10.403Z,27.378
2022-09-05T08:55:12.568Z,27.485
2022-09-05T08:56:08.479Z,27.515
2022-09-05T08:57:09.258Z,27.515
2022-09-05T08:58:12.115Z,27.545
2022-09-05T08:59:32.096Z,27.575
2022-09-05T09:00:19.159Z,27.6208
2022-09-05T09:01:09.342Z,27.6891
2022-09-05T09:02:52.367Z,27.765
2022-09-05T09:03:09.053Z,27.827
2022-09-05T09:04:11.730Z,27.895
2022-09-05T09:05:14.181Z,27.965
2022-09-05T09:06:18.942Z,28.04
2022-09-05T09:07:50.927Z,28.155
2022-09-05T09:08:09.543Z,28.24
2022-09-05T09:09:08.220Z,28.285
2022-09-05T09:10:09.436Z,28.35
2022-09-05T09:11:09.300Z,28.403
2022-09-05T09:12:11.614Z,28.445
2022-09-05T09:13:09.122Z,28.48
2022-09-05T09:14:07.990Z,28.575
2022-09-05T09:15:09.447Z,28.622
2022-09-05T09:16:08.889Z,28.677
2022-09-05T09:17:11.554Z,28.725
2022-09-05T09:18:10.173Z,28.745
2022-09-05T09:19:08.544Z,28.795
2022-09-05T09:20:09.498Z,28.8158
2022-09-05T09:21:09.527Z,28.8791
2022-09-05T09:22:09.789Z,28.895
2022-09-05T09:23:09.239Z,28.935
2022-09-05T09:24:08.093Z,28.96
2022-09-05T09:25:15.308Z,28.985
2022-09-05T09:26:11.871Z,29.02
2022-09-05T09:27:09.756Z,29.035
2022-09-05T09:28:50.258Z,29.045
2022-09-05T09:29:08.701Z,29.065
2022-09-05T09:30:09.103Z,29.115
2022-09-05T09:31:12.003Z,29.166
2022-09-05T09:32:13.896Z,29.2
2022-09-05T09:33:09.509Z,29.245
2022-09-05T09:34:08.299Z,29.27
2022-09-05T09:35:08.900Z,29.3
2022-09-05T09:36:08.748Z,29.3216
2022-09-05T09:37:09.148Z,29.4
2022-09-05T09:38:09.877Z,29.385
2022-09-05T09:39:25.975Z,29.405
2022-09-05T09:40:08.885Z,29.41
2022-09-05T09:41:09.570Z,29.42
2022-09-05T09:42:09.036Z,29.465
2022-09-05T09:43:09.747Z,29.48
2022-09-05T09:44:08.446Z,29.5
2022-09-05T09:45:32.482Z,29.525
2022-09-05T09:46:08.998Z,29.56
2022-09-05T09:47:09.952Z,29.6208
2022-09-05T09:48:12.278Z,29.605
2022-09-05T09:49:22.566Z,29.649
2022-09-05T09:50:09.562Z,29.676
2022-09-05T09:51:09.461Z,29.7609
2022-09-05T09:52:21.116Z,29.8007
2022-09-05T09:53:09.058Z,29.835
2022-09-05T09:54:08.607Z,29.9215
2022-09-05T09:55:09.351Z,29.945
2022-09-05T09:56:08.631Z,29.983
2022-09-05T09:57:09.498Z,30.064
2022-09-05T09:58:09.575Z,30.0981
2022-09-05T09:59:08.009Z,30.08
2022-09-05T10:00:09.124Z,30.075
2022-09-05T10:01:35.254Z,30.06
2022-09-05T10:10:43.854Z,30.126
2022-09-05T10:11:53.083Z,30.166
2022-09-05T10:12:09.156Z,30.215
2022-09-05T10:12:18.645Z,30.26
2022-09-05T10:12:23.895Z,30.3
2022-09-05T10:12:33.105Z,30.356
2022-09-05T10:12:40.251Z,30.373
2022-09-05T10:12:53.233Z,30.435
2022-09-05T10:13:18.549Z,30.475
2022-09-05T10:13:28.353Z,30.535
2022-09-05T10:14:08.026Z,30.643
2022-09-05T10:15:35.916Z,30.71
2022-09-05T10:16:09.224Z,30.735
2022-09-05T10:17:09.236Z,30.806
2022-09-05T10:18:09.656Z,30.91
2022-09-05T10:19:08.373Z,30.915
2022-09-05T10:20:11.207Z,30.905
2022-09-05T10:21:16.994Z,30.92
2022-09-05T10:22:37.332Z,30.945
2022-09-05T10:23:09.215Z,30.975
2022-09-05T10:24:08.022Z,31.005
2022-09-05T10:25:19.077Z,31.137
2022-09-05T10:26:08.950Z,31.143
2022-09-05T10:27:11.338Z,31.149
2022-09-05T10:28:09.065Z,31.155
2022-09-05T10:29:37.103Z,31.165
2022-09-05T10:30:09.308Z,31.155
2022-09-05T10:34:00.363Z,31.12
2022-09-05T10:35:28.432Z,31.106
2022-09-05T10:35:37.356Z,30.995
2022-09-05T10:35:48.373Z,30.895
2022-09-05T10:35:52.647Z,30.8741
2022-09-05T10:36:16.984Z,30.85
2022-09-05T10:37:12.399Z,30.775
2022-09-05T10:38:10.960Z,30.715
2022-09-05T10:39:13.490Z,30.714
2022-09-05T10:40:09.157Z,30.649
2022-09-05T10:41:21.409Z,30.601
2022-09-05T10:42:08.956Z,30.575
2022-09-05T10:43:09.804Z,30.61
2022-09-05T10:44:08.322Z,30.62
2022-09-05T10:45:09.209Z,30.6316
2022-09-05T10:46:09.827Z,30.7
2022-09-05T10:47:09.171Z,30.735
2022-09-05T10:48:17.807Z,30.84
2022-09-05T10:49:08.419Z,30.925
2022-09-05T10:50:08.993Z,31.01
2022-09-05T10:51:09.663Z,31.06
2022-09-05T10:52:19.433Z,31.159
2022-09-05T10:53:09.788Z,31.265
2022-09-05T10:54:08.473Z,31.316
2022-09-05T10:55:20.689Z,31.35
2022-09-05T10:56:12.532Z,31.405
2022-09-05T10:57:09.892Z,31.435
2022-09-05T10:58:09.050Z,31.48
2022-09-05T11:00:50.741Z,31.535
2022-09-05T11:02:45.607Z,31.596
2022-09-05T11:03:02.128Z,31.665
2022-09-05T11:03:36.872Z,31.735
2022-09-05T11:03:43.192Z,31.765
2022-09-05T11:04:08.474Z,31.795
2022-09-05T11:05:09.594Z,31.8216
2022-09-05T11:06:09.680Z,31.827
2022-09-05T11:07:09.318Z,31.8216
2022-09-05T11:08:09.463Z,31.833
2022-09-05T11:09:09.899Z,31.898
2022-09-05T11:10:12.439Z,31.915
2022-09-05T11:11:09.064Z,31.975
2022-09-05T11:12:09.665Z,32
2022-09-05T11:13:09.651Z,32.055
2022-09-05T11:14:08.718Z,32.09
2022-09-05T11:15:09.682Z,32.137
2022-09-05T11:16:12.799Z,32.2
2022-09-05T11:17:09.125Z,32.26
2022-09-05T11:18:09.703Z,32.3216
2022-09-05T11:19:09.243Z,32.39
2022-09-05T11:20:14.403Z,32.429
2022-09-05T11:21:09.375Z,32.4861
2022-09-05T11:22:22.429Z,32.489
2022-09-05T11:23:09.356Z,32.504
2022-09-05T11:24:09.189Z,32.5109
2022-09-05T11:25:09.819Z,32.525
2022-09-05T11:26:09.700Z,32.525
2022-09-05T11:27:24.398Z,32.515
2022-09-05T11:28:08.766Z,32.53
2022-09-05T11:29:10.664Z,32.515
2022-09-05T11:30:09.848Z,32.51
2022-09-05T11:31:12.984Z,32.475
2022-09-05T11:34:18.235Z,32.485
2022-09-05T11:41:01.025Z,32.495
2022-09-05T11:41:13.388Z,32.53
2022-09-05T11:41:25.625Z,32.585
2022-09-05T11:41:35.201Z,32.666
2022-09-05T11:41:42.670Z,32.705
2022-09-05T11:41:53.377Z,32.74
2022-09-05T11:42:24.553Z,32.93
2022-09-05T11:43:08.913Z,32.9
2022-09-05T11:44:25.547Z,32.895
2022-09-05T11:45:12.064Z,32.92
2022-09-05T11:46:09.497Z,32.975
2022-09-05T11:47:28.409Z,32.94
2022-09-05T11:48:11.145Z,32.905
2022-09-05T11:49:08.471Z,32.92
2022-09-05T11:50:09.438Z,32.955
2022-09-05T11:51:12.227Z,32.965
2022-09-05T11:52:08.834Z,33.005
2022-09-05T11:53:09.683Z,33.075
2022-09-05T11:54:10.554Z,33.12
2022-09-05T11:55:09.301Z,33.08
2022-09-05T11:56:09.029Z,33.075
2022-09-05T11:57:32.109Z,33.155
2022-09-05T11:58:47.989Z,33.186
2022-09-05T11:59:08.307Z,33.06
2022-09-05T12:00:31.964Z,32.955
2022-09-05T12:01:42.040Z,32.955
2022-09-05T12:02:23.479Z,32.904
2022-09-05T12:03:08.796Z,32.8791
2022-09-05T12:42:10.851Z,32.915
2022-09-05T12:42:48.503Z,32.872
2022-09-05T12:44:50.342Z,32.85
2022-09-05T12:44:54.305Z,32.833
2022-09-05T12:45:06.976Z,32.8216
2022-09-05T12:45:12.319Z,32.8216
2022-09-05T12:45:37.188Z,32.908
2022-09-05T12:45:47.997Z,32.93
2022-09-05T12:45:57.907Z,32.905
2022-09-05T12:46:24.712Z,32.91
2022-09-05T12:46:29.358Z,32.8791
2022-09-05T12:46:36.553Z,32.89
2022-09-05T12:46:45.873Z,32.96
2022-09-05T12:46:57.420Z,32.985
2022-09-05T12:47:24.349Z,33.196
2022-09-05T12:47:48.970Z,33.405
2022-09-05T12:47:57.876Z,33.265
2022-09-05T12:48:07.274Z,33.106
2022-09-05T12:48:16.865Z,33.095
2022-09-05T12:48:38.913Z,33.09
2022-09-05T12:48:47.202Z,33.1
2022-09-05T12:49:00.377Z,33.06
2022-09-05T12:49:16.082Z,32.96
2022-09-05T12:49:34.405Z,32.99
2022-09-05T12:50:02.502Z,33.107
2022-09-05T12:50:19.991Z,33.1
2022-09-05T12:50:28.602Z,33.03
2022-09-05T12:50:35.940Z,33.04
2022-09-05T12:50:46.599Z,33.054
2022-09-05T12:50:58.196Z,33.075
2022-09-05T12:51:06.903Z,33.137
2022-09-05T12:51:46.725Z,33.28
2022-09-05T12:51:54.988Z,33.362
2022-09-05T12:52:07.544Z,33.4
2022-09-05T12:52:21.138Z,33.5109
2022-09-05T12:52:37.702Z,33.755
2022-09-05T12:52:48.078Z,33.791
2022-09-05T12:54:37.629Z,33.872
2022-09-05T12:55:09.188Z,33.95
2022-09-05T12:58:34.696Z,34.025
2022-09-05T13:03:28.028Z,34.105
2022-09-05T13:04:19.003Z,34.199
2022-09-05T13:04:37.260Z,34.302
2022-09-05T13:05:01.250Z,34.51
2022-09-05T13:05:12.264Z,34.695
2022-09-05T13:05:21.925Z,34.735
2022-09-05T13:05:31.090Z,34.795
2022-09-05T13:06:17.112Z,34.555
2022-09-05T13:07:09.029Z,34.56
2022-09-05T13:08:11.605Z,34.565
2022-09-05T13:09:08.162Z,34.59
2022-09-05T13:11:54.424Z,34.671
2022-09-05T13:15:20.043Z,34.755
2022-09-05T13:15:31.811Z,34.78
2022-09-05T13:15:39.858Z,34.8216
2022-09-05T13:15:47.559Z,34.9
2022-09-05T13:16:09.126Z,35.005
2022-09-05T13:17:09.488Z,35.123
2022-09-05T13:18:11.490Z,35.23
2022-09-05T13:19:08.339Z,35.265
2022-09-05T13:20:12.005Z,35.295
2022-09-05T13:21:08.843Z,35.295
2022-09-05T13:22:09.010Z,35.275
2022-09-05T13:23:12.083Z,35.367
2022-09-05T13:24:08.863Z,35.323
2022-09-05T13:25:11.970Z,35.295
2022-09-05T13:26:09.401Z,35.245
2022-09-05T13:27:09.247Z,35.177
2022-09-05T13:28:08.911Z,35.219
2022-09-05T13:29:14.721Z,35.25
2022-09-05T13:31:40.646Z,35.255
2022-09-05T13:38:37.727Z,35.26
2022-09-05T13:38:52.963Z,35.362
2022-09-05T13:39:00.488Z,35.35
2022-09-05T13:39:10.289Z,35.27
2022-09-05T13:40:09.345Z,35.213
2022-09-05T13:41:09.101Z,35.36
2022-09-05T13:42:09.709Z,35.275
2022-09-05T13:43:09.466Z,35.16
2022-09-05T13:44:25.659Z,35.105
2022-09-05T13:45:09.738Z,35.085
2022-09-05T13:46:09.255Z,35.138
2022-09-05T13:47:29.061Z,35.22
2022-09-05T13:48:09.457Z,35.323
2022-09-05T13:49:24.958Z,35.45
2022-09-05T13:50:09.026Z,35.48
2022-09-05T13:51:10.018Z,35.53
2022-09-05T13:52:09.287Z,35.575
2022-09-05T13:53:11.262Z,35.66
2022-09-05T13:54:10.054Z,35.735
2022-09-05T13:55:08.982Z,35.785
2022-09-05T13:56:09.731Z,35.856
2022-09-05T13:57:09.371Z,35.94
2022-09-05T13:58:09.048Z,35.955
2022-09-05T13:59:09.117Z,35.985
2022-09-05T14:00:29.895Z,35.99
2022-09-05T14:01:09.413Z,35.995
2022-09-05T14:02:25.794Z,36.045
2022-09-05T14:03:40.631Z,36.155
2022-09-05T14:04:08.452Z,36.182
2022-09-05T14:05:16.141Z,36.1258
2022-09-05T14:06:45.252Z,36.127
2022-09-05T14:08:12.239Z,36.322
2022-09-05T14:09:37.554Z,36.324
2022-09-05T14:10:09.972Z,36.187
2022-09-05T14:11:09.665Z,36.055
2022-09-05T14:12:09.557Z,35.939
2022-09-05T14:13:09.572Z,35.735
2022-09-05T14:14:15.233Z,35.605
2022-09-05T14:15:10.818Z,35.48
2022-09-05T14:16:09.327Z,35.341
2022-09-05T14:18:26.233Z,35.213
2022-09-05T14:19:09.046Z,35.105
2022-09-05T14:20:09.382Z,34.95
2022-09-05T14:21:10.611Z,34.862
2022-09-05T14:22:22.319Z,34.718
2022-09-05T14:23:08.908Z,34.505
2022-09-05T14:24:09.661Z,34.392
2022-09-05T14:25:12.209Z,34.2
2022-09-05T14:26:14.275Z,34.09
2022-09-05T14:27:08.677Z,34.04
2022-09-05T14:28:09.465Z,33.985
2022-09-05T14:29:09.223Z,33.905
2022-09-05T14:38:05.776Z,33.839
2022-09-05T14:38:15.843Z,33.745
2022-09-05T14:38:32.917Z,33.75
2022-09-05T14:38:39.464Z,33.72
2022-09-05T14:38:45.711Z,33.688
2022-09-05T14:39:01.538Z,33.77
2022-09-05T14:40:30.155Z,33.795
2022-09-05T14:41:08.946Z,33.73
2022-09-05T14:42:10.004Z,33.632
2022-09-05T14:43:09.161Z,33.61
2022-09-05T14:44:09.969Z,33.575
2022-09-05T14:45:11.617Z,33.682
2022-09-05T14:46:09.385Z,33.834
2022-09-05T14:47:08.885Z,33.834
2022-09-05T14:48:09.309Z,33.681
2022-09-05T14:49:08.341Z,33.585
2022-09-05T14:50:09.597Z,33.545
2022-09-05T14:51:09.739Z,33.575
2022-09-05T14:52:09.169Z,33.626
2022-09-05T14:54:08.318Z,33.52
2022-09-05T14:55:22.966Z,33.475
2022-09-05T14:56:13.738Z,33.43
2022-09-05T15:03:09.312Z,33.455
2022-09-05T15:03:15.770Z,33.455
2022-09-05T15:04:40.944Z,33.6891
2022-09-05T15:04:50.028Z,33.621
2022-09-05T15:04:58.997Z,33.56
2022-09-05T15:05:16.789Z,33.585
2022-09-05T15:06:09.443Z,33.495
2022-09-05T15:07:09.404Z,33.495
2022-09-05T15:08:31.868Z,33.485
2022-09-05T15:12:45.485Z,33.505
2022-09-05T15:13:05.290Z,33.535
2022-09-05T15:13:14.811Z,33.595
2022-09-05T15:13:25.762Z,33.6
2022-09-05T15:13:33.978Z,33.637
2022-09-05T15:14:07.965Z,33.699
2022-09-05T15:15:09.690Z,33.695
2022-09-05T15:16:08.975Z,33.688
2022-09-05T15:17:11.938Z,33.6316
2022-09-05T15:18:08.961Z,33.6783
2022-09-05T15:19:08.582Z,33.73
2022-09-05T15:20:08.848Z,33.735
2022-09-05T15:21:09.043Z,33.735
2022-09-05T15:22:09.516Z,33.7
2022-09-05T15:23:26.257Z,33.61
2022-09-05T15:24:14.277Z,33.565
2022-09-05T15:25:12.286Z,33.56
2022-09-05T15:26:09.621Z,33.525
2022-09-05T15:27:09.006Z,33.49
2022-09-05T15:28:08.886Z,33.485
2022-09-05T15:29:13.202Z,33.515
2022-09-05T15:30:09.594Z,33.545
2022-09-05T15:31:09.101Z,33.525
2022-09-05T15:32:10.032Z,33.515
2022-09-05T15:33:09.395Z,33.51
2022-09-05T15:34:08.820Z,33.515
2022-09-05T15:35:09.664Z,33.52
2022-09-05T15:36:09.077Z,33.4836
2022-09-05T15:37:26.781Z,33.495
2022-09-05T15:38:08.760Z,33.489
2022-09-05T15:39:16.422Z,33.4815
2022-09-05T15:40:22.941Z,33.535
2022-09-05T15:41:09.411Z,33.5109
2022-09-05T15:42:08.751Z,33.495
2022-09-05T15:43:12.727Z,33.472
2022-09-05T15:44:09.651Z,33.4618
2022-09-05T15:45:10.813Z,33.435
2022-09-05T15:46:11.920Z,33.445
2022-09-05T15:47:09.059Z,33.425
2022-09-05T15:48:08.872Z,33.415
2022-09-05T15:49:08.557Z,33.373
2022-09-05T15:50:09.157Z,33.35
2022-09-05T15:51:09.033Z,33.356
2022-09-05T15:52:09.526Z,33.339
2022-09-05T15:53:08.941Z,33.275
2022-09-05T15:54:10.819Z,33.255
2022-09-05T15:55:08.952Z,33.225
2022-09-05T15:56:08.915Z,33.188
2022-09-05T15:57:15.286Z,33.12
2022-09-05T15:58:09.333Z,33.105
2022-09-05T15:59:07.917Z,33.04
2022-09-05T16:00:09.354Z,33.05
2022-09-05T16:01:08.956Z,33
2022-09-05T16:02:09.000Z,32.95
2022-09-05T16:03:49.753Z,32.925
2022-09-05T16:10:59.176Z,32.92
2022-09-05T16:12:23.956Z,32.91
2022-09-05T16:12:29.591Z,32.88
2022-09-05T16:12:37.834Z,32.873
2022-09-05T16:12:45.727Z,32.889
2022-09-05T16:12:52.997Z,32.884
2022-09-05T16:13:39.691Z,32.839
2022-09-05T16:14:09.270Z,32.795
2022-09-05T16:16:35.274Z,32.775
2022-09-05T16:23:42.868Z,32.765
2022-09-05T16:23:53.179Z,32.76
2022-09-05T16:24:07.990Z,32.775
2022-09-05T16:24:15.270Z,32.775
2022-09-05T16:24:24.687Z,32.785
2022-09-05T16:25:06.077Z,32.75
2022-09-05T16:25:11.127Z,32.816
2022-09-05T16:25:36.024Z,32.775
2022-09-05T16:26:09.132Z,32.775
2022-09-05T16:27:09.051Z,32.775
2022-09-05T16:28:09.652Z,32.78
2022-09-05T16:29:09.177Z,32.75
2022-09-05T16:30:15.605Z,32.73
2022-09-05T16:31:09.109Z,32.71
2022-09-05T16:32:09.262Z,32.74
2022-09-05T16:33:09.283Z,32.745
2022-09-05T16:34:16.361Z,32.74
2022-09-05T16:35:09.637Z,32.694
2022-09-05T16:36:14.117Z,32.6841
2022-09-05T16:37:13.853Z,32.66
2022-09-05T16:38:09.229Z,32.705
2022-09-05T16:39:08.215Z,32.715
2022-09-05T16:40:09.643Z,32.666
2022-09-05T16:41:15.389Z,32.638
2022-09-05T16:42:09.522Z,32.585
2022-09-05T16:43:09.256Z,32.59
2022-09-05T16:44:09.413Z,32.58
2022-09-05T16:45:09.604Z,32.595
2022-09-05T16:46:09.025Z,32.61
2022-09-05T16:47:09.655Z,32.56
2022-09-05T16:48:11.935Z,32.555
2022-09-05T16:49:11.819Z,32.53
2022-09-05T16:50:16.558Z,32.54
2022-09-05T16:51:13.313Z,32.545
2022-09-05T16:52:09.164Z,32.52
2022-09-05T16:53:28.354Z,32.56
2022-09-05T16:54:16.108Z,32.575
2022-09-05T16:55:09.089Z,32.55
2022-09-05T16:56:09.457Z,32.53
2022-09-05T16:57:08.926Z,32.475
2022-09-05T16:58:14.341Z,32.475
2022-09-05T16:59:08.171Z,32.425
2022-09-05T17:00:09.088Z,32.39
2022-09-05T17:01:12.946Z,32.339
2022-09-05T17:02:12.493Z,32.2663
2022-09-05T17:03:09.190Z,32.204
2022-09-05T17:04:08.821Z,32.085
2022-09-05T17:05:09.080Z,32.01
2022-09-05T17:06:12.196Z,31.98
2022-09-05T17:07:08.733Z,31.9618
2022-09-05T17:08:12.205Z,31.967
2022-09-05T17:09:12.827Z,31.9236
2022-09-05T17:10:09.459Z,31.9
2022-09-05T17:11:13.853Z,31.8909
2022-09-05T17:12:09.605Z,31.907
2022-09-05T17:13:09.090Z,31.8909
2022-09-05T17:14:11.966Z,31.856
2022-09-05T17:15:08.862Z,31.833
2022-09-05T17:16:09.022Z,31.8216
2022-09-05T17:18:26.959Z,31.8216
2022-09-05T17:18:33.085Z,31.827
2022-09-05T17:19:08.569Z,31.8
2022-09-05T17:20:12.500Z,31.8158
2022-09-05T17:21:08.762Z,31.8108
2022-09-05T17:31:52.089Z,31.8
2022-09-05T17:31:59.760Z,31.765
2022-09-05T17:32:15.760Z,31.74
2022-09-05T17:32:23.810Z,31.683
2022-09-05T17:32:32.579Z,31.672
2022-09-05T17:32:40.168Z,31.649
2022-09-05T17:33:01.465Z,31.6316
2022-09-05T17:33:08.444Z,31.632
2022-09-05T17:34:08.945Z,31.6
2022-09-05T17:35:22.089Z,31.565
2022-09-05T17:36:08.406Z,31.505
2022-09-05T17:37:11.827Z,31.46
2022-09-05T17:38:16.754Z,31.445
2022-09-05T17:39:09.378Z,31.41
2022-09-05T17:40:08.551Z,31.385
2022-09-05T17:41:09.648Z,31.415
2022-09-05T17:42:08.991Z,31.415
2022-09-05T17:43:08.941Z,31.395
2022-09-05T17:44:09.413Z,31.345
2022-09-05T17:45:12.319Z,31.3
2022-09-05T17:46:09.594Z,31.28
2022-09-05T17:47:09.121Z,31.235
2022-09-05T17:48:09.330Z,31.199
2022-09-05T17:49:19.497Z,31.1841
2022-09-05T17:50:08.822Z,31.1316
2022-09-05T17:51:09.288Z,31.12
2022-09-05T17:52:09.017Z,31.1258
2022-09-05T17:53:26.699Z,31.11
2022-09-05T17:54:07.914Z,31.1258
2022-09-05T17:55:09.397Z,31.1
2022-09-05T17:56:09.213Z,31.095
2022-09-05T17:57:08.584Z,31.08
2022-09-05T17:58:09.327Z,31.05
2022-09-05T17:59:08.284Z,31.035
2022-09-05T18:00:12.166Z,31.015
2022-09-05T18:01:09.201Z,31.015
2022-09-05T18:02:09.895Z,31.015
2022-09-05T18:03:09.339Z,30.98
2022-09-05T18:04:21.912Z,30.95
2022-09-05T18:05:09.265Z,30.955
2022-09-05T18:06:12.137Z,30.945
2022-09-05T18:07:09.014Z,30.92
2022-09-05T18:08:09.521Z,30.905
2022-09-05T18:09:09.030Z,30.8741
2022-09-05T18:30:37.279Z,30.8741
2022-09-05T18:30:41.443Z,30.89
2022-09-05T18:30:56.785Z,30.92
2022-09-05T18:31:01.492Z,30.88
2022-09-05T18:31:27.165Z,30.873
2022-09-05T18:31:51.749Z,30.8683
2022-09-05T18:32:03.605Z,30.8683
2022-09-05T18:32:22.130Z,30.8741
2022-09-05T18:34:00.177Z,30.845
2022-09-05T18:34:05.529Z,30.845
2022-09-05T18:34:18.836Z,30.85
2022-09-05T18:34:35.244Z,30.827
2022-09-05T18:34:38.595Z,30.8216
2022-09-05T18:35:41.613Z,30.7881
2022-09-05T18:35:55.419Z,30.7546
2022-09-05T18:36:25.509Z,30.688
2022-09-05T18:36:32.304Z,30.6327
2022-09-05T18:37:09.313Z,30.6061
2022-09-05T18:38:08.778Z,30.5763
2022-09-05T18:39:08.838Z,30.565
2022-09-05T18:40:16.547Z,30.56
2022-09-05T18:41:09.260Z,30.56
2022-09-05T18:42:36.874Z,30.55
2022-09-05T18:43:10.720Z,30.515
2022-09-05T18:44:13.523Z,30.49
2022-09-05T18:45:14.526Z,30.455
2022-09-05T18:46:13.788Z,30.445
2022-09-05T18:47:08.548Z,30.42
2022-09-05T18:48:09.087Z,30.425
2022-09-05T18:50:21.338Z,30.43
2022-09-05T18:50:36.094Z,30.43
2022-09-05T18:51:15.438Z,30.43
2022-09-05T18:52:09.130Z,30.435
2022-09-05T18:53:12.795Z,30.405
2022-09-05T18:54:08.328Z,30.3791
2022-09-05T18:56:27.351Z,30.3741
2022-09-05T18:56:31.562Z,30.345
2022-09-05T18:57:32.239Z,30.345
2022-09-05T18:58:12.235Z,30.362
2022-09-05T18:59:14.582Z,30.333
2022-09-05T19:00:09.346Z,30.339
2022-09-05T19:01:09.073Z,30.345
2022-09-05T19:02:50.617Z,30.356
2022-09-05T19:03:07.971Z,30.35
2022-09-05T19:04:10.125Z,30.356
2022-09-05T19:05:15.694Z,30.356
2022-09-05T19:06:45.049Z,30.345
2022-09-05T19:07:12.614Z,30.327
2022-09-05T19:08:09.034Z,30.3158
2022-09-05T19:09:10.799Z,30.295
2022-09-05T19:10:35.957Z,30.265
2022-09-05T19:11:27.538Z,30.29
2022-09-05T19:12:46.518Z,30.29
2022-09-05T19:13:09.472Z,30.28
2022-09-05T19:14:25.414Z,30.285
2022-09-05T19:15:08.797Z,30.265
2022-09-05T19:16:42.356Z,30.275
2022-09-05T19:17:12.750Z,30.255
2022-09-05T19:18:34.693Z,30.25
2022-09-05T19:19:08.791Z,30.245
2022-09-05T19:20:33.157Z,30.23
2022-09-05T19:21:12.091Z,30.245
2022-09-05T19:23:13.721Z,30.225
2022-09-05T19:23:18.757Z,30.21
2022-09-05T19:24:08.414Z,30.19
2022-09-05T19:25:08.972Z,30.1783
2022-09-05T19:26:09.881Z,30.172
2022-09-05T19:33:54.725Z,30.16
2022-09-05T19:37:46.401Z,30.155
2022-09-05T19:37:56.117Z,30.1258
2022-09-05T19:38:06.566Z,30.115
2022-09-05T19:38:15.310Z,30.105
2022-09-05T19:38:44.158Z,30.035
2022-09-05T19:48:07.336Z,30.02
2022-09-05T19:48:16.650Z,29.985
2022-09-05T19:48:34.298Z,29.925
2022-09-05T19:48:41.566Z,29.91
2022-09-05T19:49:11.766Z,29.79
2022-09-05T19:49:18.833Z,29.78
2022-09-05T19:49:50.520Z,29.73
2022-09-05T19:50:08.762Z,29.74
2022-09-05T19:51:16.798Z,29.74
2022-09-05T19:52:09.194Z,29.745
2022-09-05T19:53:09.733Z,29.74
2022-09-05T19:54:08.002Z,29.73
2022-09-05T19:55:09.715Z,29.74
2022-09-05T19:56:09.091Z,29.74
2022-09-05T19:57:09.554Z,29.725
2022-09-05T19:58:19.130Z,29.715
2022-09-05T19:59:08.093Z,29.69
2022-09-05T20:00:09.885Z,29.6946
2022-09-05T20:01:09.490Z,29.69
2022-09-05T20:02:12.432Z,29.6772
2022-09-05T20:03:09.445Z,29.638
2022-09-05T20:04:07.968Z,29.6316
2022-09-05T20:05:09.320Z,29.585
2022-09-05T20:06:09.085Z,29.545
2022-09-05T20:07:11.623Z,29.535
2022-09-05T20:08:09.138Z,29.505
2022-09-05T20:09:08.828Z,29.49
2022-09-05T20:10:12.253Z,29.455
2022-09-05T20:11:09.040Z,29.435
2022-09-05T20:12:08.676Z,29.41
2022-09-05T20:13:09.896Z,29.362
2022-09-05T20:14:07.697Z,29.356
2022-09-05T20:15:09.440Z,29.3158
2022-09-05T20:16:08.812Z,29.3
2022-09-05T20:17:12.263Z,29.27
2022-09-05T20:18:11.683Z,29.245
2022-09-05T20:19:08.659Z,29.23
2022-09-05T20:20:09.115Z,29.205
2022-09-05T20:21:08.365Z,29.16
2022-09-05T20:22:17.422Z,29.143
2022-09-05T20:23:08.786Z,29.12
2022-09-05T20:24:08.579Z,29.116
2022-09-05T20:25:09.188Z,29.09
2022-09-05T20:26:08.897Z,29.075
2022-09-05T20:27:09.553Z,29.06
2022-09-05T20:28:10.173Z,29.055
2022-09-05T20:29:08.586Z,29.035
2022-09-05T20:30:12.161Z,29.035
2022-09-05T20:31:08.909Z,29.025
2022-09-05T20:32:09.048Z,29.015
2022-09-05T20:33:08.942Z,29.01
2022-09-05T20:43:09.524Z,29.005
2022-09-05T20:43:41.451Z,28.985
2022-09-05T20:43:48.754Z,28.97
2022-09-05T20:43:53.507Z,28.935
2022-09-05T20:43:59.280Z,28.905
2022-09-05T20:44:22.915Z,28.839
2022-09-05T20:44:31.171Z,28.8216
2022-09-05T20:44:43.657Z,28.765
2022-09-05T20:45:08.964Z,28.775
2022-09-05T20:47:24.699Z,28.75
2022-09-05T20:54:44.799Z,28.715
2022-09-05T20:54:54.160Z,28.705
2022-09-05T20:54:59.102Z,28.695
2022-09-05T20:55:43.163Z,28.69
2022-09-05T20:55:51.036Z,28.677
2022-09-05T20:55:58.666Z,28.66
2022-09-05T20:56:07.789Z,28.615
2022-09-05T20:57:09.245Z,28.56
2022-09-05T20:58:10.024Z,28.55
2022-09-05T20:59:08.501Z,28.54
2022-09-05T21:00:09.310Z,28.53
2022-09-05T21:01:21.014Z,28.51
2022-09-05T21:02:09.671Z,28.49
2022-09-05T21:03:09.359Z,28.465